Terminal Aerodrome Forecast
Issued by NWS Albuquerque, NM

Home | Current Version | Previous Version | Text Only | Print | Product List | Glossary On
Versions: 1 2 3 4 5 6 7 8 9 10 11 12
827
FTUS45 KABQ 300531
TAFABQ
TAF
KABQ 300531Z 3006/3106 17008KT P6SM SCT150
     FM300700 09014KT P6SM FEW050 SCT120
     FM301200 VRB04KT P6SM SKC
     FM301800 23006KT P6SM FEW120
     FM302100 20012G21KT P6SM SCT130
     FM310200 21008KT P6SM BKN120
     FM310400 11008KT P6SM BKN100=

USA.gov is the U.S. government's official web portal to all federal, state and local government web resources and services.